sensor_id;sensor_type;location;lat;lon;timestamp;temperature;humidity
21104;DHT22;10710;53.398;-1.514;2023-02-10T00:02:25;7.50;99.90
21104;DHT22;10710;53.398;-1.514;2023-02-10T00:04:51;7.40;99.90
21104;DHT22;10710;53.398;-1.514;2023-02-10T00:07:19;7.30;99.90
21104;DHT22;10710;53.398;-1.514;2023-02-10T00:09:45;7.20;99.90
21104;DHT22;10710;53.398;-1.514;2023-02-10T00:12:11;7.10;99.90
21104;DHT22;10710;53.398;-1.514;2023-02-10T00:14:37;7.00;99.90
21104;DHT22;10710;53.398;-1.514;2023-02-10T00:17:04;7.00;99.90
21104;DHT22;10710;53.398;-1.514;2023-02-10T00:19:30;7.00;99.90
21104;DHT22;10710;53.398;-1.514;2023-02-10T00:21:57;6.90;99.90
21104;DHT22;10710;53.398;-1.514;2023-02-10T00:24:23;6.80;99.90
21104;DHT22;10710;53.398;-1.514;2023-02-10T00:26:49;6.70;99.90
21104;DHT22;10710;53.398;-1.514;2023-02-10T00:29:15;6.70;99.90
21104;DHT22;10710;53.398;-1.514;2023-02-10T00:31:42;6.60;99.90
21104;DHT22;10710;53.398;-1.514;2023-02-10T00:34:16;6.60;99.90
21104;DHT22;10710;53.398;-1.514;2023-02-10T00:36:42;6.50;99.90
21104;DHT22;10710;53.398;-1.514;2023-02-10T00:39:13;6.40;99.90
21104;DHT22;10710;53.398;-1.514;2023-02-10T00:41:38;6.40;99.90
21104;DHT22;10710;53.398;-1.514;2023-02-10T00:44:05;6.30;99.90
21104;DHT22;10710;53.398;-1.514;2023-02-10T00:46:30;6.20;99.90
21104;DHT22;10710;53.398;-1.514;2023-02-10T00:48:56;6.20;99.90
21104;DHT22;10710;53.398;-1.514;2023-02-10T00:51:22;6.10;99.90
21104;DHT22;10710;53.398;-1.514;2023-02-10T00:53:47;6.10;99.90
21104;DHT22;10710;53.398;-1.514;2023-02-10T00:56:17;6.00;99.90
21104;DHT22;10710;53.398;-1.514;2023-02-10T00:58:44;6.00;99.90
21104;DHT22;10710;53.398;-1.514;2023-02-10T01:01:10;6.10;99.90
21104;DHT22;10710;53.398;-1.514;2023-02-10T01:03:36;6.00;99.90
21104;DHT22;10710;53.398;-1.514;2023-02-10T01:06:02;6.00;99.90
21104;DHT22;10710;53.398;-1.514;2023-02-10T01:08:27;5.90;99.90
21104;DHT22;10710;53.398;-1.514;2023-02-10T01:11:05;5.70;99.90
21104;DHT22;10710;53.398;-1.514;2023-02-10T01:13:32;5.60;99.90
21104;DHT22;10710;53.398;-1.514;2023-02-10T01:15:59;5.50;99.90
21104;DHT22;10710;53.398;-1.514;2023-02-10T01:18:25;5.40;99.90
21104;DHT22;10710;53.398;-1.514;2023-02-10T01:20:51;5.30;99.90
21104;DHT22;10710;53.398;-1.514;2023-02-10T01:23:17;5.30;99.90
21104;DHT22;10710;53.398;-1.514;2023-02-10T01:25:43;5.20;99.90
21104;DHT22;10710;53.398;-1.514;2023-02-10T01:28:09;5.10;99.90
21104;DHT22;10710;53.398;-1.514;2023-02-10T01:30:35;5.10;99.90
21104;DHT22;10710;53.398;-1.514;2023-02-10T01:33:01;4.90;99.90
21104;DHT22;10710;53.398;-1.514;2023-02-10T01:35:27;4.90;99.90
21104;DHT22;10710;53.398;-1.514;2023-02-10T01:37:53;4.80;99.90
21104;DHT22;10710;53.398;-1.514;2023-02-10T01:40:20;4.80;99.90
21104;DHT22;10710;53.398;-1.514;2023-02-10T01:42:46;4.80;99.90
21104;DHT22;10710;53.398;-1.514;2023-02-10T01:47:43;4.70;99.90
21104;DHT22;10710;53.398;-1.514;2023-02-10T01:50:11;4.70;99.90
21104;DHT22;10710;53.398;-1.514;2023-02-10T01:52:38;4.80;99.90
21104;DHT22;10710;53.398;-1.514;2023-02-10T01:55:06;4.80;99.90
21104;DHT22;10710;53.398;-1.514;2023-02-10T01:57:33;4.90;99.90
21104;DHT22;10710;53.398;-1.514;2023-02-10T02:00:01;5.00;99.90
21104;DHT22;10710;53.398;-1.514;2023-02-10T02:02:28;5.00;99.90
21104;DHT22;10710;53.398;-1.514;2023-02-10T02:05:01;5.10;99.90
21104;DHT22;10710;53.398;-1.514;2023-02-10T02:07:34;5.10;99.90
21104;DHT22;10710;53.398;-1.514;2023-02-10T02:10:03;5.10;99.90
21104;DHT22;10710;53.398;-1.514;2023-02-10T02:12:41;5.20;99.90
21104;DHT22;10710;53.398;-1.514;2023-02-10T02:15:36;5.10;99.90
21104;DHT22;10710;53.398;-1.514;2023-02-10T02:18:27;5.10;99.90
21104;DHT22;10710;53.398;-1.514;2023-02-10T02:26:55;4.90;99.90
21104;DHT22;10710;53.398;-1.514;2023-02-10T02:35:04;4.80;99.90
21104;DHT22;10710;53.398;-1.514;2023-02-10T02:37:33;4.80;99.90
21104;DHT22;10710;53.398;-1.514;2023-02-10T02:40:00;4.70;99.90
21104;DHT22;10710;53.398;-1.514;2023-02-10T02:42:32;4.70;99.90
21104;DHT22;10710;53.398;-1.514;2023-02-10T02:45:08;4.70;99.90
21104;DHT22;10710;53.398;-1.514;2023-02-10T02:50:23;4.70;99.90
21104;DHT22;10710;53.398;-1.514;2023-02-10T02:58:21;4.60;99.90
21104;DHT22;10710;53.398;-1.514;2023-02-10T03:00:50;4.70;99.90
21104;DHT22;10710;53.398;-1.514;2023-02-10T03:03:17;4.80;99.90
21104;DHT22;10710;53.398;-1.514;2023-02-10T03:05:43;4.90;99.90
21104;DHT22;10710;53.398;-1.514;2023-02-10T03:08:08;4.90;99.90
21104;DHT22;10710;53.398;-1.514;2023-02-10T03:10:34;5.00;99.90
21104;DHT22;10710;53.398;-1.514;2023-02-10T03:12:59;5.20;99.90
21104;DHT22;10710;53.398;-1.514;2023-02-10T03:15:25;5.40;99.90
21104;DHT22;10710;53.398;-1.514;2023-02-10T03:17:51;5.40;99.90
21104;DHT22;10710;53.398;-1.514;2023-02-10T03:20:17;5.50;99.90
21104;DHT22;10710;53.398;-1.514;2023-02-10T03:22:43;5.60;99.90
21104;DHT22;10710;53.398;-1.514;2023-02-10T03:25:09;5.60;99.90
21104;DHT22;10710;53.398;-1.514;2023-02-10T03:27:34;5.60;99.90
21104;DHT22;10710;53.398;-1.514;2023-02-10T03:30:00;5.60;99.90
21104;DHT22;10710;53.398;-1.514;2023-02-10T03:32:26;5.60;99.90
21104;DHT22;10710;53.398;-1.514;2023-02-10T03:34:51;5.50;99.90
21104;DHT22;10710;53.398;-1.514;2023-02-10T03:37:17;5.40;99.90
21104;DHT22;10710;53.398;-1.514;2023-02-10T03:39:43;5.40;99.90
21104;DHT22;10710;53.398;-1.514;2023-02-10T03:42:08;5.40;99.90
21104;DHT22;10710;53.398;-1.514;2023-02-10T03:44:35;5.40;99.90
21104;DHT22;10710;53.398;-1.514;2023-02-10T03:47:00;5.50;99.90
21104;DHT22;10710;53.398;-1.514;2023-02-10T03:49:26;5.60;99.90
21104;DHT22;10710;53.398;-1.514;2023-02-10T03:51:52;5.90;99.90
21104;DHT22;10710;53.398;-1.514;2023-02-10T03:54:17;6.10;99.90
21104;DHT22;10710;53.398;-1.514;2023-02-10T03:56:43;6.30;99.90
21104;DHT22;10710;53.398;-1.514;2023-02-10T03:59:09;6.40;99.90
21104;DHT22;10710;53.398;-1.514;2023-02-10T04:01:34;6.40;99.90
21104;DHT22;10710;53.398;-1.514;2023-02-10T04:04:00;6.50;99.90
21104;DHT22;10710;53.398;-1.514;2023-02-10T04:06:26;6.50;99.90
21104;DHT22;10710;53.398;-1.514;2023-02-10T04:08:52;6.50;99.90
21104;DHT22;10710;53.398;-1.514;2023-02-10T04:11:18;6.50;99.90
21104;DHT22;10710;53.398;-1.514;2023-02-10T04:13:44;6.60;99.90
21104;DHT22;10710;53.398;-1.514;2023-02-10T04:16:12;6.60;99.90
21104;DHT22;10710;53.398;-1.514;2023-02-10T04:18:39;6.50;99.90
21104;DHT22;10710;53.398;-1.514;2023-02-10T04:21:08;6.50;99.90
21104;DHT22;10710;53.398;-1.514;2023-02-10T04:23:35;6.50;99.90
21104;DHT22;10710;53.398;-1.514;2023-02-10T04:26:01;6.50;99.90
21104;DHT22;10710;53.398;-1.514;2023-02-10T04:28:27;6.50;99.90
21104;DHT22;10710;53.398;-1.514;2023-02-10T04:30:58;6.40;99.90
21104;DHT22;10710;53.398;-1.514;2023-02-10T04:33:24;6.40;99.90
21104;DHT22;10710;53.398;-1.514;2023-02-10T04:35:51;6.40;99.90
21104;DHT22;10710;53.398;-1.514;2023-02-10T04:38:18;6.40;99.90
21104;DHT22;10710;53.398;-1.514;2023-02-10T04:40:43;6.40;99.90
21104;DHT22;10710;53.398;-1.514;2023-02-10T04:43:10;6.40;99.90
21104;DHT22;10710;53.398;-1.514;2023-02-10T04:45:36;6.40;99.90
21104;DHT22;10710;53.398;-1.514;2023-02-10T04:48:02;6.40;99.90
21104;DHT22;10710;53.398;-1.514;2023-02-10T04:50:28;6.40;99.90
21104;DHT22;10710;53.398;-1.514;2023-02-10T04:52:53;6.30;99.90
21104;DHT22;10710;53.398;-1.514;2023-02-10T04:55:19;6.40;99.90
21104;DHT22;10710;53.398;-1.514;2023-02-10T04:57:45;6.40;99.90
21104;DHT22;10710;53.398;-1.514;2023-02-10T05:00:11;6.30;99.90
21104;DHT22;10710;53.398;-1.514;2023-02-10T05:02:37;6.30;99.90
21104;DHT22;10710;53.398;-1.514;2023-02-10T05:05:03;6.20;99.90
21104;DHT22;10710;53.398;-1.514;2023-02-10T05:07:29;6.20;99.90
21104;DHT22;10710;53.398;-1.514;2023-02-10T05:09:55;6.10;99.90
21104;DHT22;10710;53.398;-1.514;2023-02-10T05:12:21;6.10;99.90
21104;DHT22;10710;53.398;-1.514;2023-02-10T05:14:46;6.10;99.90
21104;DHT22;10710;53.398;-1.514;2023-02-10T05:17:12;6.20;99.90
21104;DHT22;10710;53.398;-1.514;2023-02-10T05:19:38;6.20;99.90
21104;DHT22;10710;53.398;-1.514;2023-02-10T05:22:03;6.20;99.90
21104;DHT22;10710;53.398;-1.514;2023-02-10T05:24:29;6.30;99.90
21104;DHT22;10710;53.398;-1.514;2023-02-10T05:26:55;6.20;99.90
21104;DHT22;10710;53.398;-1.514;2023-02-10T05:29:21;6.20;99.90
21104;DHT22;10710;53.398;-1.514;2023-02-10T05:31:46;6.10;99.90
21104;DHT22;10710;53.398;-1.514;2023-02-10T05:34:12;6.20;99.90
21104;DHT22;10710;53.398;-1.514;2023-02-10T05:36:38;6.20;99.90
21104;DHT22;10710;53.398;-1.514;2023-02-10T05:39:03;6.30;99.90
21104;DHT22;10710;53.398;-1.514;2023-02-10T05:41:58;6.30;99.90
21104;DHT22;10710;53.398;-1.514;2023-02-10T05:44:25;6.30;99.90
21104;DHT22;10710;53.398;-1.514;2023-02-10T05:46:52;6.30;99.90
21104;DHT22;10710;53.398;-1.514;2023-02-10T05:49:18;6.30;99.90
21104;DHT22;10710;53.398;-1.514;2023-02-10T05:51:44;6.30;99.90
21104;DHT22;10710;53.398;-1.514;2023-02-10T05:54:10;6.30;99.90
21104;DHT22;10710;53.398;-1.514;2023-02-10T05:56:36;6.30;99.90
21104;DHT22;10710;53.398;-1.514;2023-02-10T05:59:02;6.20;99.90
21104;DHT22;10710;53.398;-1.514;2023-02-10T06:01:28;6.30;99.90
21104;DHT22;10710;53.398;-1.514;2023-02-10T06:03:54;6.30;99.90
21104;DHT22;10710;53.398;-1.514;2023-02-10T06:06:20;6.30;99.90
21104;DHT22;10710;53.398;-1.514;2023-02-10T06:08:46;6.20;99.90
21104;DHT22;10710;53.398;-1.514;2023-02-10T06:11:12;6.30;99.90
21104;DHT22;10710;53.398;-1.514;2023-02-10T06:13:38;6.30;99.90
21104;DHT22;10710;53.398;-1.514;2023-02-10T06:16:04;6.20;99.90
21104;DHT22;10710;53.398;-1.514;2023-02-10T06:18:30;6.20;99.90
21104;DHT22;10710;53.398;-1.514;2023-02-10T06:20:56;6.20;99.90
21104;DHT22;10710;53.398;-1.514;2023-02-10T06:23:24;6.10;99.90
21104;DHT22;10710;53.398;-1.514;2023-02-10T06:25:50;6.10;99.90
21104;DHT22;10710;53.398;-1.514;2023-02-10T06:28:27;6.10;99.90
21104;DHT22;10710;53.398;-1.514;2023-02-10T06:30:53;6.10;99.90
21104;DHT22;10710;53.398;-1.514;2023-02-10T06:33:19;6.10;99.90
21104;DHT22;10710;53.398;-1.514;2023-02-10T06:35:46;6.20;99.90
21104;DHT22;10710;53.398;-1.514;2023-02-10T06:38:12;6.20;99.90
21104;DHT22;10710;53.398;-1.514;2023-02-10T06:40:38;6.10;99.90
21104;DHT22;10710;53.398;-1.514;2023-02-10T06:43:04;6.20;99.90
21104;DHT22;10710;53.398;-1.514;2023-02-10T06:45:30;6.20;99.90
21104;DHT22;10710;53.398;-1.514;2023-02-10T06:47:55;6.10;99.90
21104;DHT22;10710;53.398;-1.514;2023-02-10T06:50:21;6.10;99.90
21104;DHT22;10710;53.398;-1.514;2023-02-10T06:52:47;6.10;99.90
21104;DHT22;10710;53.398;-1.514;2023-02-10T06:55:13;6.10;99.90
21104;DHT22;10710;53.398;-1.514;2023-02-10T06:57:39;6.10;99.90
21104;DHT22;10710;53.398;-1.514;2023-02-10T07:00:11;6.10;99.90
21104;DHT22;10710;53.398;-1.514;2023-02-10T07:02:37;6.10;99.90
21104;DHT22;10710;53.398;-1.514;2023-02-10T07:05:05;6.10;99.90
21104;DHT22;10710;53.398;-1.514;2023-02-10T07:07:32;6.10;99.90
21104;DHT22;10710;53.398;-1.514;2023-02-10T07:09:58;6.00;99.90
21104;DHT22;10710;53.398;-1.514;2023-02-10T07:12:24;6.00;99.90
21104;DHT22;10710;53.398;-1.514;2023-02-10T07:14:52;6.10;99.90
21104;DHT22;10710;53.398;-1.514;2023-02-10T07:17:19;6.10;99.90
21104;DHT22;10710;53.398;-1.514;2023-02-10T07:19:45;6.10;99.90
21104;DHT22;10710;53.398;-1.514;2023-02-10T07:22:10;6.10;99.90
21104;DHT22;10710;53.398;-1.514;2023-02-10T07:24:36;6.20;99.90
21104;DHT22;10710;53.398;-1.514;2023-02-10T07:27:02;6.20;99.90
21104;DHT22;10710;53.398;-1.514;2023-02-10T07:29:28;6.20;99.90
21104;DHT22;10710;53.398;-1.514;2023-02-10T07:31:54;6.20;99.90
21104;DHT22;10710;53.398;-1.514;2023-02-10T07:34:20;6.20;99.90
21104;DHT22;10710;53.398;-1.514;2023-02-10T07:36:50;6.20;99.90
21104;DHT22;10710;53.398;-1.514;2023-02-10T07:39:22;6.30;99.90
21104;DHT22;10710;53.398;-1.514;2023-02-10T07:41:48;6.30;99.90
21104;DHT22;10710;53.398;-1.514;2023-02-10T07:44:15;6.40;99.90
21104;DHT22;10710;53.398;-1.514;2023-02-10T07:46:41;6.50;99.90
21104;DHT22;10710;53.398;-1.514;2023-02-10T07:49:07;6.50;99.90
21104;DHT22;10710;53.398;-1.514;2023-02-10T07:51:32;6.60;99.90
21104;DHT22;10710;53.398;-1.514;2023-02-10T07:53:58;6.60;99.90
21104;DHT22;10710;53.398;-1.514;2023-02-10T07:56:24;6.60;99.90
21104;DHT22;10710;53.398;-1.514;2023-02-10T07:58:49;6.70;99.90
21104;DHT22;10710;53.398;-1.514;2023-02-10T08:01:15;6.70;99.90
21104;DHT22;10710;53.398;-1.514;2023-02-10T08:03:41;6.70;99.90
21104;DHT22;10710;53.398;-1.514;2023-02-10T08:06:06;6.70;99.90
21104;DHT22;10710;53.398;-1.514;2023-02-10T08:08:32;6.80;99.90
21104;DHT22;10710;53.398;-1.514;2023-02-10T08:10:58;6.80;99.90
21104;DHT22;10710;53.398;-1.514;2023-02-10T08:13:24;6.80;99.90
21104;DHT22;10710;53.398;-1.514;2023-02-10T08:15:50;6.80;99.90
21104;DHT22;10710;53.398;-1.514;2023-02-10T08:18:16;6.90;99.90
21104;DHT22;10710;53.398;-1.514;2023-02-10T08:20:42;6.80;99.90
21104;DHT22;10710;53.398;-1.514;2023-02-10T08:23:16;6.80;99.90
21104;DHT22;10710;53.398;-1.514;2023-02-10T08:25:42;6.80;99.90
21104;DHT22;10710;53.398;-1.514;2023-02-10T08:28:07;6.80;99.90
21104;DHT22;10710;53.398;-1.514;2023-02-10T08:30:33;6.90;99.90
21104;DHT22;10710;53.398;-1.514;2023-02-10T08:32:59;7.00;99.90
21104;DHT22;10710;53.398;-1.514;2023-02-10T08:35:25;7.00;99.90
21104;DHT22;10710;53.398;-1.514;2023-02-10T08:37:51;7.10;99.90
21104;DHT22;10710;53.398;-1.514;2023-02-10T08:40:17;7.10;99.90
21104;DHT22;10710;53.398;-1.514;2023-02-10T08:42:43;7.20;99.90
21104;DHT22;10710;53.398;-1.514;2023-02-10T08:45:09;7.20;99.90
21104;DHT22;10710;53.398;-1.514;2023-02-10T08:47:35;7.20;99.90
21104;DHT22;10710;53.398;-1.514;2023-02-10T08:50:01;7.20;99.90
21104;DHT22;10710;53.398;-1.514;2023-02-10T08:52:27;7.30;99.90
21104;DHT22;10710;53.398;-1.514;2023-02-10T08:54:53;7.30;99.90
21104;DHT22;10710;53.398;-1.514;2023-02-10T08:57:19;7.40;99.90
21104;DHT22;10710;53.398;-1.514;2023-02-10T08:59:44;7.40;99.90
21104;DHT22;10710;53.398;-1.514;2023-02-10T09:02:11;7.40;99.90
21104;DHT22;10710;53.398;-1.514;2023-02-10T09:04:38;7.40;99.90
21104;DHT22;10710;53.398;-1.514;2023-02-10T09:07:04;7.40;99.90
21104;DHT22;10710;53.398;-1.514;2023-02-10T09:09:30;7.50;99.90
21104;DHT22;10710;53.398;-1.514;2023-02-10T09:11:55;7.50;99.90
21104;DHT22;10710;53.398;-1.514;2023-02-10T09:14:21;7.50;99.90
21104;DHT22;10710;53.398;-1.514;2023-02-10T09:16:47;7.60;99.90
21104;DHT22;10710;53.398;-1.514;2023-02-10T09:19:13;7.70;99.90
21104;DHT22;10710;53.398;-1.514;2023-02-10T09:21:39;7.70;99.90
21104;DHT22;10710;53.398;-1.514;2023-02-10T09:24:04;7.80;99.90
21104;DHT22;10710;53.398;-1.514;2023-02-10T09:26:30;7.80;99.90
21104;DHT22;10710;53.398;-1.514;2023-02-10T09:28:56;8.00;99.90
21104;DHT22;10710;53.398;-1.514;2023-02-10T09:31:23;8.10;99.90
21104;DHT22;10710;53.398;-1.514;2023-02-10T09:33:49;8.20;99.90
21104;DHT22;10710;53.398;-1.514;2023-02-10T09:36:17;8.30;99.90
21104;DHT22;10710;53.398;-1.514;2023-02-10T09:38:43;8.40;99.90
21104;DHT22;10710;53.398;-1.514;2023-02-10T09:55:24;8.80;99.90
21104;DHT22;10710;53.398;-1.514;2023-02-10T09:58:42;8.80;99.90
21104;DHT22;10710;53.398;-1.514;2023-02-10T10:00:44;8.90;99.90
21104;DHT22;10710;53.398;-1.514;2023-02-10T10:03:19;9.00;99.90
21104;DHT22;10710;53.398;-1.514;2023-02-10T10:08:27;9.10;99.90
21104;DHT22;10710;53.398;-1.514;2023-02-10T10:11:00;9.20;99.90
21104;DHT22;10710;53.398;-1.514;2023-02-10T10:13:28;9.30;99.90
21104;DHT22;10710;53.398;-1.514;2023-02-10T10:16:17;9.30;99.90
21104;DHT22;10710;53.398;-1.514;2023-02-10T10:29:55;9.80;99.90
21104;DHT22;10710;53.398;-1.514;2023-02-10T10:32:44;9.90;99.90
21104;DHT22;10710;53.398;-1.514;2023-02-10T10:35:40;10.00;99.90
21104;DHT22;10710;53.398;-1.514;2023-02-10T10:38:22;10.10;99.90
21104;DHT22;10710;53.398;-1.514;2023-02-10T10:40:52;10.00;99.90
21104;DHT22;10710;53.398;-1.514;2023-02-10T10:43:44;10.10;99.90
21104;DHT22;10710;53.398;-1.514;2023-02-10T10:46:27;10.20;99.90
21104;DHT22;10710;53.398;-1.514;2023-02-10T10:48:54;10.30;99.90
21104;DHT22;10710;53.398;-1.514;2023-02-10T10:51:20;10.40;99.90
21104;DHT22;10710;53.398;-1.514;2023-02-10T10:53:51;10.50;99.90
21104;DHT22;10710;53.398;-1.514;2023-02-10T10:58:49;10.70;99.90
21104;DHT22;10710;53.398;-1.514;2023-02-10T11:01:17;10.70;99.90
21104;DHT22;10710;53.398;-1.514;2023-02-10T11:03:43;10.70;99.90
21104;DHT22;10710;53.398;-1.514;2023-02-10T11:06:14;10.60;99.90
21104;DHT22;10710;53.398;-1.514;2023-02-10T11:08:53;10.60;99.90
21104;DHT22;10710;53.398;-1.514;2023-02-10T11:11:37;10.70;99.90
21104;DHT22;10710;53.398;-1.514;2023-02-10T11:14:16;10.70;99.90
21104;DHT22;10710;53.398;-1.514;2023-02-10T11:16:48;10.70;99.90
21104;DHT22;10710;53.398;-1.514;2023-02-10T11:19:29;10.60;99.90
21104;DHT22;10710;53.398;-1.514;2023-02-10T11:21:55;10.40;99.90
21104;DHT22;10710;53.398;-1.514;2023-02-10T11:24:29;10.50;99.90
21104;DHT22;10710;53.398;-1.514;2023-02-10T11:27:12;10.60;99.90
21104;DHT22;10710;53.398;-1.514;2023-02-10T11:29:50;10.70;99.90
21104;DHT22;10710;53.398;-1.514;2023-02-10T11:32:21;10.80;99.90
21104;DHT22;10710;53.398;-1.514;2023-02-10T11:34:48;10.90;99.90
21104;DHT22;10710;53.398;-1.514;2023-02-10T11:37:34;11.00;99.90
21104;DHT22;10710;53.398;-1.514;2023-02-10T11:40:04;11.10;99.90
21104;DHT22;10710;53.398;-1.514;2023-02-10T11:42:35;11.10;99.90
21104;DHT22;10710;53.398;-1.514;2023-02-10T11:47:33;11.20;99.90
21104;DHT22;10710;53.398;-1.514;2023-02-10T11:49:59;11.30;99.90
21104;DHT22;10710;53.398;-1.514;2023-02-10T11:52:27;11.30;99.90
21104;DHT22;10710;53.398;-1.514;2023-02-10T11:54:55;11.10;99.90
21104;DHT22;10710;53.398;-1.514;2023-02-10T12:22:43;11.20;99.90
21104;DHT22;10710;53.398;-1.514;2023-02-10T12:28:01;11.30;99.90
21104;DHT22;10710;53.398;-1.514;2023-02-10T12:36:07;11.20;99.90
21104;DHT22;10710;53.398;-1.514;2023-02-10T12:41:36;11.10;99.90
21104;DHT22;10710;53.398;-1.514;2023-02-10T12:44:24;11.10;99.90
21104;DHT22;10710;53.398;-1.514;2023-02-10T12:50:08;10.90;99.90
21104;DHT22;10710;53.398;-1.514;2023-02-10T12:52:45;10.90;99.90
21104;DHT22;10710;53.398;-1.514;2023-02-10T12:55:17;10.80;99.90
21104;DHT22;10710;53.398;-1.514;2023-02-10T12:57:58;10.90;99.90
21104;DHT22;10710;53.398;-1.514;2023-02-10T13:00:38;10.80;99.90
21104;DHT22;10710;53.398;-1.514;2023-02-10T13:05:46;10.80;99.90
21104;DHT22;10710;53.398;-1.514;2023-02-10T13:08:19;10.80;99.90
21104;DHT22;10710;53.398;-1.514;2023-02-10T13:10:53;10.80;99.90
21104;DHT22;10710;53.398;-1.514;2023-02-10T13:13:25;10.80;99.90
21104;DHT22;10710;53.398;-1.514;2023-02-10T13:16:07;10.80;99.90
21104;DHT22;10710;53.398;-1.514;2023-02-10T13:19:03;10.80;99.90
21104;DHT22;10710;53.398;-1.514;2023-02-10T13:21:47;10.90;99.90
21104;DHT22;10710;53.398;-1.514;2023-02-10T13:26:48;10.80;99.90
21104;DHT22;10710;53.398;-1.514;2023-02-10T13:32:09;10.70;99.90
21104;DHT22;10710;53.398;-1.514;2023-02-10T13:34:52;10.70;99.90
21104;DHT22;10710;53.398;-1.514;2023-02-10T13:37:35;10.70;99.90
21104;DHT22;10710;53.398;-1.514;2023-02-10T13:40:12;10.80;99.90
21104;DHT22;10710;53.398;-1.514;2023-02-10T13:42:47;10.80;99.90
21104;DHT22;10710;53.398;-1.514;2023-02-10T13:47:48;10.70;99.90
21104;DHT22;10710;53.398;-1.514;2023-02-10T13:52:59;10.70;99.90
21104;DHT22;10710;53.398;-1.514;2023-02-10T14:00:42;10.60;99.90
21104;DHT22;10710;53.398;-1.514;2023-02-10T14:08:44;10.70;99.90
21104;DHT22;10710;53.398;-1.514;2023-02-10T14:13:43;10.80;99.90
21104;DHT22;10710;53.398;-1.514;2023-02-10T14:18:43;10.70;99.90
21104;DHT22;10710;53.398;-1.514;2023-02-10T14:21:16;10.70;99.90
21104;DHT22;10710;53.398;-1.514;2023-02-10T14:23:54;10.80;99.90
21104;DHT22;10710;53.398;-1.514;2023-02-10T14:26:32;10.70;99.90
21104;DHT22;10710;53.398;-1.514;2023-02-10T14:28:59;10.70;99.90
21104;DHT22;10710;53.398;-1.514;2023-02-10T14:31:35;10.70;99.90
21104;DHT22;10710;53.398;-1.514;2023-02-10T14:34:15;10.80;99.90
21104;DHT22;10710;53.398;-1.514;2023-02-10T14:36:50;10.80;99.90
21104;DHT22;10710;53.398;-1.514;2023-02-10T14:39:20;10.80;99.90
21104;DHT22;10710;53.398;-1.514;2023-02-10T14:41:47;10.90;99.90
21104;DHT22;10710;53.398;-1.514;2023-02-10T14:47:03;10.90;99.90
21104;DHT22;10710;53.398;-1.514;2023-02-10T14:49:29;10.90;99.90
21104;DHT22;10710;53.398;-1.514;2023-02-10T14:52:01;10.90;99.90
21104;DHT22;10710;53.398;-1.514;2023-02-10T14:54:27;11.00;99.90
21104;DHT22;10710;53.398;-1.514;2023-02-10T14:56:56;11.00;99.90
21104;DHT22;10710;53.398;-1.514;2023-02-10T14:59:29;11.10;99.90
21104;DHT22;10710;53.398;-1.514;2023-02-10T15:01:58;11.20;99.90
21104;DHT22;10710;53.398;-1.514;2023-02-10T15:04:25;11.20;99.90
21104;DHT22;10710;53.398;-1.514;2023-02-10T15:06:55;11.20;99.90
21104;DHT22;10710;53.398;-1.514;2023-02-10T15:09:31;11.20;99.90
21104;DHT22;10710;53.398;-1.514;2023-02-10T15:12:07;11.20;99.90
21104;DHT22;10710;53.398;-1.514;2023-02-10T15:17:16;11.20;99.90
21104;DHT22;10710;53.398;-1.514;2023-02-10T15:22:43;11.20;99.90
21104;DHT22;10710;53.398;-1.514;2023-02-10T15:31:17;11.20;99.90
21104;DHT22;10710;53.398;-1.514;2023-02-10T15:33:58;11.20;99.90
21104;DHT22;10710;53.398;-1.514;2023-02-10T15:36:33;11.20;99.90
21104;DHT22;10710;53.398;-1.514;2023-02-10T15:39:01;11.20;99.90
21104;DHT22;10710;53.398;-1.514;2023-02-10T15:43:59;11.10;99.90
21104;DHT22;10710;53.398;-1.514;2023-02-10T15:46:27;11.10;99.90
21104;DHT22;10710;53.398;-1.514;2023-02-10T15:48:53;11.10;99.90
21104;DHT22;10710;53.398;-1.514;2023-02-10T15:51:29;11.20;99.90
21104;DHT22;10710;53.398;-1.514;2023-02-10T15:53:56;11.10;99.90
21104;DHT22;10710;53.398;-1.514;2023-02-10T15:56:23;11.20;99.90
21104;DHT22;10710;53.398;-1.514;2023-02-10T15:58:50;11.20;99.90
21104;DHT22;10710;53.398;-1.514;2023-02-10T16:01:16;11.30;99.90
21104;DHT22;10710;53.398;-1.514;2023-02-10T16:03:41;11.20;99.90
21104;DHT22;10710;53.398;-1.514;2023-02-10T16:06:14;11.20;99.90
21104;DHT22;10710;53.398;-1.514;2023-02-10T16:08:41;11.20;99.90
21104;DHT22;10710;53.398;-1.514;2023-02-10T16:11:09;11.20;99.90
21104;DHT22;10710;53.398;-1.514;2023-02-10T16:13:35;11.10;99.90
21104;DHT22;10710;53.398;-1.514;2023-02-10T16:16:01;11.10;99.90
21104;DHT22;10710;53.398;-1.514;2023-02-10T16:18:29;11.10;99.90
21104;DHT22;10710;53.398;-1.514;2023-02-10T16:20:55;11.10;99.90
21104;DHT22;10710;53.398;-1.514;2023-02-10T16:23:21;11.10;99.90
21104;DHT22;10710;53.398;-1.514;2023-02-10T16:25:48;11.10;99.90
21104;DHT22;10710;53.398;-1.514;2023-02-10T16:28:17;11.10;99.90
21104;DHT22;10710;53.398;-1.514;2023-02-10T16:30:43;11.10;99.90
21104;DHT22;10710;53.398;-1.514;2023-02-10T16:33:09;11.00;99.90
21104;DHT22;10710;53.398;-1.514;2023-02-10T16:35:35;11.00;99.90
21104;DHT22;10710;53.398;-1.514;2023-02-10T16:38:01;11.00;99.90
21104;DHT22;10710;53.398;-1.514;2023-02-10T16:40:29;11.10;99.90
21104;DHT22;10710;53.398;-1.514;2023-02-10T16:42:55;11.00;99.90
21104;DHT22;10710;53.398;-1.514;2023-02-10T16:45:26;11.00;99.90
21104;DHT22;10710;53.398;-1.514;2023-02-10T16:47:52;11.00;99.90
21104;DHT22;10710;53.398;-1.514;2023-02-10T16:52:54;11.00;99.90
21104;DHT22;10710;53.398;-1.514;2023-02-10T16:55:20;10.90;99.90
21104;DHT22;10710;53.398;-1.514;2023-02-10T16:57:46;11.00;99.90
21104;DHT22;10710;53.398;-1.514;2023-02-10T17:00:14;10.90;99.90
21104;DHT22;10710;53.398;-1.514;2023-02-10T17:02:40;11.00;99.90
21104;DHT22;10710;53.398;-1.514;2023-02-10T17:05:08;10.90;99.90
21104;DHT22;10710;53.398;-1.514;2023-02-10T17:07:34;11.00;99.90
21104;DHT22;10710;53.398;-1.514;2023-02-10T17:10:01;11.00;99.90
21104;DHT22;10710;53.398;-1.514;2023-02-10T17:12:27;11.00;99.90
21104;DHT22;10710;53.398;-1.514;2023-02-10T17:14:52;11.00;99.90
21104;DHT22;10710;53.398;-1.514;2023-02-10T17:17:18;11.00;99.90
21104;DHT22;10710;53.398;-1.514;2023-02-10T17:19:44;10.90;99.90
21104;DHT22;10710;53.398;-1.514;2023-02-10T17:22:09;10.90;99.90
21104;DHT22;10710;53.398;-1.514;2023-02-10T17:24:35;10.90;99.90
21104;DHT22;10710;53.398;-1.514;2023-02-10T17:27:01;11.00;99.90
21104;DHT22;10710;53.398;-1.514;2023-02-10T17:29:26;10.90;99.90
21104;DHT22;10710;53.398;-1.514;2023-02-10T17:31:53;11.00;99.90
21104;DHT22;10710;53.398;-1.514;2023-02-10T17:34:19;11.00;99.90
21104;DHT22;10710;53.398;-1.514;2023-02-10T17:36:45;11.00;99.90
21104;DHT22;10710;53.398;-1.514;2023-02-10T17:39:18;11.00;99.90
21104;DHT22;10710;53.398;-1.514;2023-02-10T17:41:50;11.10;99.90
21104;DHT22;10710;53.398;-1.514;2023-02-10T17:44:17;11.10;99.90
21104;DHT22;10710;53.398;-1.514;2023-02-10T17:46:43;11.10;99.90
21104;DHT22;10710;53.398;-1.514;2023-02-10T17:49:13;11.10;99.90
21104;DHT22;10710;53.398;-1.514;2023-02-10T17:51:39;11.20;99.90
21104;DHT22;10710;53.398;-1.514;2023-02-10T17:54:05;11.20;99.90
21104;DHT22;10710;53.398;-1.514;2023-02-10T17:56:31;11.20;99.90
21104;DHT22;10710;53.398;-1.514;2023-02-10T17:58:57;11.20;99.90